createdAt,value
2023-03-24T00:00:09.011Z,11.50
2023-03-24T00:02:37.903Z,11.63
2023-03-24T00:05:05.622Z,12.63
2023-03-24T00:07:35.391Z,11.70
2023-03-24T00:10:02.451Z,11.95
2023-03-24T00:12:29.435Z,12.20
2023-03-24T00:14:56.241Z,12.77
2023-03-24T00:17:28.120Z,12.63
2023-03-24T00:19:56.113Z,12.52
2023-03-24T00:22:22.896Z,12.57
2023-03-24T00:24:49.768Z,13.73
2023-03-24T00:27:18.743Z,13.40
2023-03-24T00:29:45.790Z,12.82
2023-03-24T00:32:12.948Z,12.43
2023-03-24T00:34:43.543Z,14.30
2023-03-24T00:37:10.401Z,13.55
2023-03-24T00:39:37.273Z,13.45
2023-03-24T00:42:04.146Z,13.70
2023-03-24T00:44:30.908Z,14.50
2023-03-24T00:46:57.764Z,14.55
2023-03-24T00:49:42.654Z,14.65
2023-03-24T00:52:20.940Z,14.55
2023-03-24T00:54:58.276Z,15.13
2023-03-24T00:57:26.232Z,14.38
2023-03-24T00:59:54.770Z,14.75
2023-03-24T01:02:25.109Z,15.27
2023-03-24T01:05:00.030Z,15.40
2023-03-24T01:07:30.050Z,14.30
2023-03-24T01:09:58.024Z,14.55
2023-03-24T01:12:26.792Z,14.57
2023-03-24T01:14:54.638Z,15.00
2023-03-24T01:17:29.543Z,14.27
2023-03-24T01:19:57.031Z,13.77
2023-03-24T01:22:29.376Z,14.40
2023-03-24T01:24:57.060Z,15.23
2023-03-24T01:27:23.941Z,14.32
2023-03-24T01:29:51.054Z,15.18
2023-03-24T01:32:17.900Z,13.45
2023-03-24T01:34:44.742Z,15.02
2023-03-24T01:37:11.565Z,14.82
2023-03-24T01:39:38.334Z,14.55
2023-03-24T01:42:05.233Z,14.93
2023-03-24T01:44:38.214Z,14.30
2023-03-24T01:47:08.641Z,15.05
2023-03-24T01:49:39.952Z,15.25
2023-03-24T01:52:12.466Z,14.55
2023-03-24T01:55:01.263Z,15.20
2023-03-24T01:57:36.371Z,16.00
2023-03-24T02:00:09.270Z,16.13
2023-03-24T02:02:36.932Z,15.43
2023-03-24T02:05:07.133Z,15.75
2023-03-24T02:07:42.994Z,17.30
2023-03-24T02:10:13.801Z,17.15
2023-03-24T02:12:42.605Z,18.30
2023-03-24T02:15:10.460Z,17.80
2023-03-24T02:17:57.172Z,17.10
2023-03-24T02:20:42.849Z,18.40
2023-03-24T02:23:40.993Z,17.80
2023-03-24T02:26:20.657Z,17.45
2023-03-24T02:28:53.062Z,18.40
2023-03-24T02:31:38.364Z,18.38
2023-03-24T02:34:37.294Z,17.30
2023-03-24T02:37:39.517Z,18.23
2023-03-24T02:40:32.989Z,19.70
2023-03-24T02:43:18.675Z,17.92
2023-03-24T02:45:52.646Z,19.50
2023-03-24T02:48:31.549Z,19.50
2023-03-24T02:51:18.558Z,22.40
2023-03-24T02:53:59.342Z,21.35
2023-03-24T02:56:44.765Z,18.67
2023-03-24T02:59:19.424Z,19.60
2023-03-24T03:02:03.843Z,18.65
2023-03-24T03:04:34.217Z,18.10
2023-03-24T03:07:09.594Z,20.65
2023-03-24T03:09:49.074Z,21.08
2023-03-24T03:12:19.566Z,20.50
2023-03-24T03:14:51.534Z,17.95
2023-03-24T03:17:30.802Z,19.38
2023-03-24T03:20:06.692Z,19.30
2023-03-24T03:22:43.125Z,21.38
2023-03-24T03:25:12.481Z,25.67
2023-03-24T03:27:42.046Z,30.42
2023-03-24T03:30:18.449Z,27.38
2023-03-24T03:32:54.743Z,27.25
2023-03-24T03:35:38.325Z,26.35
2023-03-24T03:38:15.638Z,19.63
2023-03-24T03:40:49.920Z,21.77
2023-03-24T03:43:17.190Z,20.15
2023-03-24T03:45:44.569Z,20.38
2023-03-24T03:48:11.946Z,22.48
2023-03-24T03:50:39.361Z,21.98
2023-03-24T03:53:07.332Z,20.00
2023-03-24T03:55:35.505Z,21.65
2023-03-24T03:58:04.354Z,23.73
2023-03-24T04:00:31.766Z,24.75
2023-03-24T04:03:22.262Z,22.05
2023-03-24T04:06:16.078Z,23.58
2023-03-24T04:08:57.263Z,22.40
2023-03-24T04:11:45.856Z,26.00
2023-03-24T04:14:46.508Z,25.75
2023-03-24T04:17:40.746Z,30.00
2023-03-24T04:20:19.588Z,27.02
2023-03-24T04:23:05.172Z,25.88
2023-03-24T04:25:37.851Z,23.05
2023-03-24T04:28:26.647Z,23.00
2023-03-24T04:31:08.700Z,23.73
2023-03-24T04:33:54.152Z,23.00
2023-03-24T04:36:42.428Z,24.15
2023-03-24T04:39:17.106Z,25.67
2023-03-24T04:41:47.436Z,24.45
2023-03-24T04:44:17.667Z,26.75
2023-03-24T04:46:44.739Z,23.98
2023-03-24T04:49:11.777Z,23.73
2023-03-24T04:51:38.872Z,22.35
2023-03-24T04:54:06.065Z,21.83
2023-03-24T04:56:47.620Z,23.33
2023-03-24T04:59:15.324Z,23.38
2023-03-24T05:01:50.051Z,24.20
2023-03-24T05:04:19.132Z,24.55
2023-03-24T05:06:52.319Z,24.15
2023-03-24T05:09:24.065Z,24.08
2023-03-24T05:11:51.796Z,26.25
2023-03-24T05:14:19.376Z,24.80
2023-03-24T05:16:46.218Z,29.40
2023-03-24T05:19:13.244Z,29.33
2023-03-24T05:21:40.120Z,28.20
2023-03-24T05:24:07.603Z,31.83
2023-03-24T05:26:34.681Z,33.08
2023-03-24T05:29:01.858Z,34.60
2023-03-24T05:31:28.648Z,35.90
2023-03-24T05:33:55.906Z,32.03
2023-03-24T05:36:22.653Z,30.17
2023-03-24T05:38:49.478Z,33.60
2023-03-24T05:41:16.288Z,33.75
2023-03-24T05:43:43.012Z,32.15
2023-03-24T05:46:09.813Z,32.13
2023-03-24T05:48:36.754Z,32.33
2023-03-24T05:51:03.610Z,36.35
2023-03-24T05:53:31.116Z,34.83
2023-03-24T05:55:58.712Z,35.70
2023-03-24T05:58:25.683Z,35.35
2023-03-24T06:00:54.761Z,37.05
2023-03-24T06:03:21.726Z,38.03
2023-03-24T06:05:49.437Z,35.75
2023-03-24T06:08:17.311Z,35.45
2023-03-24T06:10:44.252Z,36.03
2023-03-24T06:13:11.211Z,30.33
2023-03-24T06:15:39.526Z,28.45
2023-03-24T06:18:08.045Z,27.75
2023-03-24T06:20:36.143Z,26.70
2023-03-24T06:23:03.249Z,30.33
2023-03-24T06:25:30.079Z,30.75
2023-03-24T06:28:04.302Z,31.67
2023-03-24T06:30:31.210Z,32.88
2023-03-24T06:32:58.333Z,33.25
2023-03-24T06:35:25.297Z,33.38
2023-03-24T06:37:52.174Z,31.88
2023-03-24T06:40:19.769Z,32.40
2023-03-24T06:42:46.618Z,30.52
2023-03-24T06:45:13.504Z,32.08
2023-03-24T06:47:40.255Z,31.70
2023-03-24T06:50:07.663Z,33.10
2023-03-24T06:52:35.635Z,30.33
2023-03-24T06:55:03.337Z,33.10
2023-03-24T06:57:30.340Z,33.95
2023-03-24T06:59:57.209Z,32.33
2023-03-24T07:02:24.172Z,33.75
2023-03-24T07:04:54.109Z,33.10
2023-03-24T07:07:56.932Z,33.15
2023-03-24T07:10:09.628Z,32.70
2023-03-24T07:12:36.713Z,34.75
2023-03-24T07:15:04.724Z,32.55
2023-03-24T07:17:31.617Z,34.13
2023-03-24T07:19:58.579Z,34.58
2023-03-24T07:22:25.358Z,35.97
2023-03-24T07:24:54.026Z,36.63
2023-03-24T07:27:21.242Z,35.97
2023-03-24T07:29:48.100Z,39.03
2023-03-24T07:32:14.942Z,37.88
2023-03-24T07:34:43.893Z,36.38
2023-03-24T07:37:11.444Z,41.00
2023-03-24T07:39:38.381Z,40.58
2023-03-24T07:42:06.124Z,39.67
2023-03-24T07:44:33.081Z,38.65
2023-03-24T07:47:00.002Z,36.10
2023-03-24T07:49:27.321Z,37.60
2023-03-24T07:51:54.225Z,38.25
2023-03-24T07:54:21.533Z,35.85
2023-03-24T07:56:48.453Z,38.53
2023-03-24T07:59:15.438Z,38.00
2023-03-24T08:01:42.535Z,37.08
2023-03-24T08:04:13.301Z,37.00
2023-03-24T08:06:43.372Z,37.42
2023-03-24T08:09:11.537Z,36.30
2023-03-24T08:11:39.311Z,35.95
2023-03-24T08:14:06.411Z,37.67
2023-03-24T08:16:33.557Z,36.80
2023-03-24T08:19:00.570Z,38.22
2023-03-24T08:21:27.819Z,37.20
2023-03-24T08:23:54.771Z,38.25
2023-03-24T08:26:22.710Z,38.30
2023-03-24T08:28:50.846Z,37.75
2023-03-24T08:31:17.975Z,36.78
2023-03-24T08:33:45.224Z,36.40
2023-03-24T08:36:14.415Z,37.72
2023-03-24T08:38:41.741Z,37.70
2023-03-24T08:41:08.829Z,38.55
2023-03-24T08:43:37.620Z,38.92
2023-03-24T08:46:08.209Z,39.08
2023-03-24T08:48:39.756Z,38.55
2023-03-24T08:51:17.140Z,37.53
2023-03-24T08:53:47.116Z,37.00
2023-03-24T08:56:18.443Z,38.38
2023-03-24T08:58:48.380Z,39.95
2023-03-24T09:01:16.185Z,38.47
2023-03-24T09:03:44.739Z,38.45
2023-03-24T09:06:11.867Z,36.13
2023-03-24T09:08:38.782Z,36.72
2023-03-24T09:11:06.920Z,35.58
2023-03-24T09:13:33.814Z,35.20
2023-03-24T09:16:03.870Z,35.03
2023-03-24T09:18:30.774Z,34.20
2023-03-24T09:20:58.015Z,34.72
2023-03-24T09:23:29.404Z,32.95
2023-03-24T09:25:56.258Z,32.80
2023-03-24T09:28:23.751Z,31.27
2023-03-24T09:30:51.277Z,30.67
2023-03-24T09:33:18.498Z,30.63
2023-03-24T09:35:45.582Z,30.63
2023-03-24T09:38:12.761Z,28.58
2023-03-24T09:40:41.934Z,29.50
2023-03-24T09:43:23.692Z,27.23
2023-03-24T09:45:53.974Z,27.23
2023-03-24T09:48:46.992Z,24.75
2023-03-24T09:51:28.472Z,22.95
2023-03-24T09:54:22.338Z,21.15
2023-03-24T09:56:51.749Z,19.85
2023-03-24T09:59:20.328Z,22.48
2023-03-24T10:01:47.783Z,23.00
2023-03-24T10:04:18.525Z,18.40
2023-03-24T10:06:48.355Z,16.63
2023-03-24T10:09:27.682Z,16.40
2023-03-24T10:12:28.448Z,16.73
2023-03-24T10:15:03.838Z,16.88
2023-03-24T10:18:15.000Z,13.80
2023-03-24T10:20:54.924Z,12.32
2023-03-24T10:23:47.078Z,10.73
2023-03-24T10:29:30.234Z,10.60
2023-03-24T10:32:05.436Z,10.45
2023-03-24T10:34:34.392Z,11.13
2023-03-24T10:37:04.319Z,9.95
2023-03-24T10:39:41.956Z,10.10
2023-03-24T10:42:18.657Z,9.75
2023-03-24T10:44:53.415Z,9.65
2023-03-24T10:47:30.740Z,10.25
2023-03-24T10:50:12.345Z,9.65
2023-03-24T10:52:45.330Z,8.82
2023-03-24T10:55:21.983Z,9.17
2023-03-24T10:57:59.725Z,8.85
2023-03-24T11:00:29.837Z,8.30
2023-03-24T11:03:08.490Z,9.13
2023-03-24T11:05:38.342Z,8.70
2023-03-24T11:08:30.472Z,6.97
2023-03-24T11:13:54.297Z,5.90
2023-03-24T11:16:36.820Z,5.68
2023-03-24T11:19:19.273Z,5.15
2023-03-24T11:21:49.819Z,5.18
2023-03-24T11:24:19.411Z,4.70
2023-03-24T11:27:02.376Z,4.90
2023-03-24T11:29:32.802Z,4.22
2023-03-24T11:32:02.646Z,4.68
2023-03-24T11:34:42.391Z,4.60
2023-03-24T11:37:25.640Z,3.78
2023-03-24T11:40:13.767Z,3.70
2023-03-24T11:42:54.271Z,3.25
2023-03-24T11:45:33.069Z,3.20
2023-03-24T11:48:02.103Z,3.17
2023-03-24T11:50:38.790Z,4.63
2023-03-24T11:53:25.517Z,2.80
2023-03-24T11:56:01.568Z,3.00
2023-03-24T11:58:49.710Z,2.40
2023-03-24T12:01:22.535Z,2.40
2023-03-24T12:04:20.963Z,2.83
2023-03-24T12:07:08.090Z,3.25
2023-03-24T12:09:50.420Z,2.90
2023-03-24T12:12:32.394Z,3.20
2023-03-24T12:15:17.314Z,3.22
2023-03-24T12:18:18.450Z,3.75
2023-03-24T12:21:01.654Z,3.10
2023-03-24T12:23:40.121Z,2.65
2023-03-24T12:26:14.273Z,3.30
2023-03-24T12:29:08.968Z,3.33
2023-03-24T12:31:38.737Z,3.33
2023-03-24T12:34:14.201Z,3.42
2023-03-24T12:36:44.142Z,3.53
2023-03-24T12:39:15.604Z,3.35
2023-03-24T12:41:59.477Z,3.42
2023-03-24T12:44:50.357Z,3.38
2023-03-24T12:47:51.330Z,3.70
2023-03-24T12:50:18.074Z,3.70
2023-03-24T12:53:08.405Z,4.90
2023-03-24T12:55:58.309Z,4.50
2023-03-24T12:58:46.290Z,4.20
2023-03-24T13:01:52.712Z,5.13
2023-03-24T13:04:29.298Z,4.93
2023-03-24T13:07:06.919Z,5.28
2023-03-24T13:09:49.481Z,4.70
2023-03-24T13:12:38.576Z,4.80
2023-03-24T13:15:18.620Z,4.72
2023-03-24T13:18:10.911Z,5.13
2023-03-24T13:20:46.903Z,5.68
2023-03-24T13:23:40.853Z,4.78
2023-03-24T13:26:35.473Z,4.00
2023-03-24T13:29:14.434Z,4.43
2023-03-24T13:31:54.209Z,3.65
2023-03-24T13:34:33.442Z,4.10
2023-03-24T13:37:06.423Z,4.72
2023-03-24T13:39:35.275Z,4.63
2023-03-24T13:42:06.285Z,5.10
2023-03-24T13:44:40.811Z,4.55
2023-03-24T13:47:21.112Z,5.55
2023-03-24T13:50:04.452Z,4.90
2023-03-24T13:52:45.089Z,5.63
2023-03-24T13:55:30.295Z,5.45
2023-03-24T13:58:00.489Z,4.60
2023-03-24T14:00:28.515Z,5.32
2023-03-24T14:03:06.139Z,6.30
2023-03-24T14:05:41.489Z,5.95
2023-03-24T14:08:08.236Z,16.60
2023-03-24T14:10:42.785Z,6.63
2023-03-24T14:13:12.510Z,8.30
2023-03-24T14:15:49.863Z,8.30
2023-03-24T14:18:17.179Z,9.57
2023-03-24T14:20:56.456Z,10.00
2023-03-24T14:23:57.808Z,5.82
2023-03-24T14:26:25.891Z,6.15
2023-03-24T14:28:58.244Z,5.38
2023-03-24T14:31:36.293Z,6.50
2023-03-24T14:34:10.968Z,6.45
2023-03-24T14:36:48.265Z,6.07
2023-03-24T14:39:32.432Z,6.28
2023-03-24T14:42:01.991Z,7.65
2023-03-24T14:44:51.890Z,9.45
2023-03-24T14:47:34.868Z,10.32
2023-03-24T14:50:12.724Z,9.88
2023-03-24T14:52:52.956Z,13.15
2023-03-24T14:55:21.850Z,7.75
2023-03-24T14:57:54.924Z,6.55
2023-03-24T15:00:31.407Z,7.63
2023-03-24T15:03:23.511Z,7.22
2023-03-24T15:05:53.379Z,6.72
2023-03-24T15:08:22.505Z,10.57
2023-03-24T15:10:55.581Z,13.93
2023-03-24T15:13:34.645Z,9.77
2023-03-24T15:16:06.862Z,6.88
2023-03-24T15:18:34.317Z,6.80
2023-03-24T15:21:01.149Z,7.13
2023-03-24T15:23:28.857Z,6.25
2023-03-24T15:25:56.439Z,6.22
2023-03-24T15:28:30.748Z,5.95
2023-03-24T15:30:59.513Z,6.53
2023-03-24T15:33:26.359Z,6.55
2023-03-24T15:35:58.322Z,6.28
2023-03-24T15:38:33.007Z,7.15
2023-03-24T15:41:04.925Z,6.53
2023-03-24T15:43:32.065Z,6.90
2023-03-24T15:46:11.847Z,7.25
2023-03-24T15:48:39.705Z,6.13
2023-03-24T15:51:11.440Z,7.97
2023-03-24T15:53:44.861Z,6.70
2023-03-24T15:56:31.879Z,6.82
2023-03-24T15:59:11.824Z,6.80
2023-03-24T16:01:50.395Z,6.85
2023-03-24T16:04:20.696Z,7.20
2023-03-24T16:06:54.593Z,7.65
2023-03-24T16:09:27.235Z,7.25
2023-03-24T16:11:54.265Z,6.50
2023-03-24T16:14:26.302Z,6.80
2023-03-24T16:16:58.632Z,6.93
2023-03-24T16:19:26.238Z,6.97
2023-03-24T16:21:54.874Z,8.90
2023-03-24T16:24:22.675Z,7.55
2023-03-24T16:26:50.230Z,7.30
2023-03-24T16:29:23.238Z,6.40
2023-03-24T16:31:52.113Z,6.25
2023-03-24T16:34:23.210Z,6.65
2023-03-24T16:36:54.706Z,7.53
2023-03-24T16:39:26.922Z,8.05
2023-03-24T16:41:54.250Z,9.38
2023-03-24T16:44:21.613Z,6.63
2023-03-24T16:46:51.258Z,5.80
2023-03-24T16:49:19.816Z,5.45
2023-03-24T16:51:47.023Z,6.05
2023-03-24T16:54:14.182Z,5.30
2023-03-24T16:56:41.652Z,5.28
2023-03-24T16:59:09.285Z,4.70
2023-03-24T17:01:41.594Z,118.55
2023-03-24T17:04:19.468Z,11.52
2023-03-24T17:06:52.876Z,5.95
2023-03-24T17:09:21.026Z,4.82
2023-03-24T17:11:52.838Z,4.65
2023-03-24T17:14:19.756Z,5.00
2023-03-24T17:16:49.235Z,18.15
2023-03-24T17:19:21.767Z,6.10
2023-03-24T17:22:17.394Z,4.78
2023-03-24T17:24:44.345Z,5.38
2023-03-24T17:27:17.052Z,5.63
2023-03-24T17:29:43.787Z,6.47
2023-03-24T17:32:11.238Z,5.30
2023-03-24T17:34:38.247Z,3.75
2023-03-24T17:37:06.080Z,5.20
2023-03-24T17:39:32.941Z,5.88
2023-03-24T17:42:01.444Z,5.28
2023-03-24T17:44:30.969Z,5.07
2023-03-24T17:46:57.854Z,4.80
2023-03-24T17:49:24.725Z,5.25
2023-03-24T17:51:51.512Z,4.82
2023-03-24T17:54:21.482Z,5.07
2023-03-24T17:56:48.385Z,4.68
2023-03-24T17:59:15.519Z,5.47
2023-03-24T18:01:42.387Z,6.45
2023-03-24T18:04:09.370Z,7.07
2023-03-24T18:06:38.407Z,8.85
2023-03-24T18:09:05.455Z,10.90
2023-03-24T18:11:32.280Z,11.50
2023-03-24T18:13:59.024Z,9.05
2023-03-24T18:16:30.119Z,10.02
2023-03-24T18:18:58.006Z,8.82
2023-03-24T18:21:24.923Z,10.80
2023-03-24T18:23:51.758Z,9.77
2023-03-24T18:26:19.089Z,25.88
2023-03-24T18:28:46.246Z,10.68
2023-03-24T18:31:18.784Z,7.22
2023-03-24T18:33:49.821Z,6.70
2023-03-24T18:36:21.566Z,10.05
2023-03-24T18:38:48.928Z,8.32
2023-03-24T18:41:18.044Z,7.55
2023-03-24T18:43:47.950Z,8.38
2023-03-24T18:46:15.736Z,31.38
2023-03-24T18:48:43.246Z,13.55
2023-03-24T18:51:11.257Z,21.73
2023-03-24T18:53:38.343Z,11.80
2023-03-24T18:56:06.575Z,8.50
2023-03-24T18:58:33.815Z,7.95
2023-03-24T19:01:12.044Z,14.95
2023-03-24T19:03:41.597Z,20.25
2023-03-24T19:06:11.678Z,22.83
2023-03-24T19:08:41.156Z,12.27
2023-03-24T19:11:08.872Z,14.85
2023-03-24T19:13:36.107Z,10.85
2023-03-24T19:16:03.803Z,9.27
2023-03-24T19:18:30.848Z,8.18
2023-03-24T19:20:58.616Z,16.83
2023-03-24T19:23:26.033Z,16.08
2023-03-24T19:25:56.224Z,12.63
2023-03-24T19:28:29.281Z,12.75
2023-03-24T19:31:00.795Z,9.48
2023-03-24T19:33:27.945Z,7.30
2023-03-24T19:35:55.270Z,7.63
2023-03-24T19:38:24.122Z,7.70
2023-03-24T19:40:52.755Z,7.60
2023-03-24T19:43:21.128Z,8.23
2023-03-24T19:45:52.231Z,7.75
2023-03-24T19:48:19.830Z,9.57
2023-03-24T19:50:49.271Z,7.60
2023-03-24T19:53:16.189Z,7.30
2023-03-24T19:55:43.005Z,6.00
2023-03-24T19:58:09.834Z,5.82
2023-03-24T20:00:37.171Z,6.65
2023-03-24T20:03:04.396Z,5.53
2023-03-24T20:05:31.240Z,5.28
2023-03-24T20:08:00.053Z,7.55
2023-03-24T20:10:27.958Z,5.85
2023-03-24T20:12:55.522Z,5.80
2023-03-24T20:15:22.565Z,5.80
2023-03-24T20:17:49.467Z,6.47
2023-03-24T20:20:16.644Z,7.10
2023-03-24T20:22:45.849Z,6.22
2023-03-24T20:25:15.466Z,6.70
2023-03-24T20:27:45.361Z,6.30
2023-03-24T20:30:14.013Z,7.50
2023-03-24T20:32:40.959Z,10.20
2023-03-24T20:35:09.076Z,17.92
2023-03-24T20:37:36.014Z,28.30
2023-03-24T20:40:05.301Z,49.47
2023-03-24T20:42:33.496Z,21.90
2023-03-24T20:45:00.506Z,15.82
2023-03-24T20:47:27.270Z,16.58
2023-03-24T20:49:54.142Z,15.18
2023-03-24T20:52:22.913Z,9.07
2023-03-24T20:54:50.755Z,25.48
2023-03-24T20:57:19.171Z,13.85
2023-03-24T20:59:48.431Z,10.82
2023-03-24T21:02:15.615Z,9.88
2023-03-24T21:04:42.861Z,10.30
2023-03-24T21:07:09.852Z,9.32
2023-03-24T21:09:36.712Z,10.82
2023-03-24T21:12:06.477Z,18.65
2023-03-24T21:14:34.118Z,119.75
2023-03-24T21:17:01.413Z,54.40
2023-03-24T21:19:28.644Z,28.02
2023-03-24T21:21:56.033Z,22.75
2023-03-24T21:24:23.569Z,17.13
2023-03-24T21:26:51.210Z,18.02
2023-03-24T21:29:18.489Z,15.27
2023-03-24T21:31:45.494Z,10.43
2023-03-24T21:34:12.461Z,5.55
2023-03-24T21:36:40.389Z,5.50
2023-03-24T21:39:09.205Z,5.10
2023-03-24T21:41:38.865Z,5.28
2023-03-24T21:44:07.896Z,5.47
2023-03-24T21:46:34.939Z,5.50
2023-03-24T21:49:01.813Z,5.22
2023-03-24T21:51:34.203Z,5.10
2023-03-24T21:54:04.141Z,4.63
2023-03-24T21:56:32.612Z,5.28
2023-03-24T21:59:00.354Z,5.20
2023-03-24T22:01:27.697Z,4.88
2023-03-24T22:03:54.759Z,4.70
2023-03-24T22:06:22.775Z,5.13
2023-03-24T22:08:49.780Z,5.50
2023-03-24T22:11:18.732Z,5.85
2023-03-24T22:13:46.560Z,5.13
2023-03-24T22:16:14.234Z,5.18
2023-03-24T22:18:41.454Z,6.05
2023-03-24T22:21:10.040Z,5.35
2023-03-24T22:23:39.534Z,5.20
2023-03-24T22:26:09.488Z,5.35
2023-03-24T22:28:37.335Z,5.60
2023-03-24T22:31:10.503Z,4.82
2023-03-24T22:33:39.474Z,4.50
2023-03-24T22:36:06.915Z,5.03
2023-03-24T22:38:34.578Z,5.00
2023-03-24T22:41:04.812Z,4.63
2023-03-24T22:43:32.306Z,4.32
2023-03-24T22:45:59.083Z,4.47
2023-03-24T22:48:25.983Z,4.50
2023-03-24T22:50:53.917Z,5.35
2023-03-24T22:53:20.833Z,4.43
2023-03-24T22:55:48.285Z,4.50
2023-03-24T22:58:15.722Z,6.35
2023-03-24T23:00:44.066Z,7.53
2023-03-24T23:03:11.284Z,5.47
2023-03-24T23:05:47.012Z,5.32
2023-03-24T23:08:15.572Z,5.53
2023-03-24T23:10:46.893Z,6.60
2023-03-24T23:13:13.843Z,6.15
2023-03-24T23:15:42.544Z,4.30
2023-03-24T23:18:10.348Z,4.03
2023-03-24T23:20:37.742Z,3.42
2023-03-24T23:23:06.791Z,3.20
2023-03-24T23:25:45.494Z,3.20
2023-03-24T23:28:13.241Z,2.70
2023-03-24T23:30:40.417Z,2.20
2023-03-24T23:33:07.309Z,1.90
2023-03-24T23:35:34.332Z,2.30
2023-03-24T23:38:02.428Z,2.28
2023-03-24T23:40:29.238Z,2.20
2023-03-24T23:42:56.356Z,2.10
2023-03-24T23:45:23.137Z,2.45
2023-03-24T23:47:51.821Z,2.65
2023-03-24T23:50:19.757Z,2.25
2023-03-24T23:52:46.749Z,2.50
2023-03-24T23:55:15.647Z,2.20
2023-03-24T23:57:42.996Z,2.35
